createdAt,value
2022-09-02T00:00:22.755Z,1012.28
2022-09-02T00:00:58.237Z,1012.29
2022-09-02T00:01:33.534Z,1012.28
2022-09-02T00:02:08.902Z,1012.27
2022-09-02T00:02:43.923Z,1012.28
2022-09-02T00:03:18.969Z,1012.28
2022-09-02T00:03:54.173Z,1012.26
2022-09-02T00:04:29.396Z,1012.24
2022-09-02T00:05:04.683Z,1012.27
2022-09-02T00:05:39.890Z,1012.24
2022-09-02T00:06:14.976Z,1012.27
2022-09-02T00:06:50.484Z,1012.29
2022-09-02T00:07:25.667Z,1012.29
2022-09-02T00:08:01.175Z,1012.23
2022-09-02T00:08:36.207Z,1012.25
2022-09-02T00:09:11.399Z,1012.26
2022-09-02T00:09:46.590Z,1012.25
2022-09-02T00:10:21.627Z,1012.29
2022-09-02T00:10:56.711Z,1012.23
2022-09-02T00:11:31.963Z,1012.26
2022-09-02T00:12:07.240Z,1012.30
2022-09-02T00:12:42.454Z,1012.24
2022-09-02T00:13:17.682Z,1012.24
2022-09-02T00:13:53.153Z,1012.27
2022-09-02T00:14:28.356Z,1012.26
2022-09-02T00:15:03.501Z,1012.22
2022-09-02T00:15:38.994Z,1012.24
2022-09-02T00:16:14.404Z,1012.25
2022-09-02T00:16:49.532Z,1012.25
2022-09-02T00:17:24.777Z,1012.24
2022-09-02T00:17:59.843Z,1012.21
2022-09-02T00:18:35.069Z,1012.22
2022-09-02T00:19:10.664Z,1012.20
2022-09-02T00:19:45.784Z,1012.21
2022-09-02T00:20:20.969Z,1012.20
2022-09-02T00:20:56.203Z,1012.19
2022-09-02T00:21:31.394Z,1012.16
2022-09-02T00:22:06.798Z,1012.17
2022-09-02T00:22:41.792Z,1012.17
2022-09-02T00:23:17.136Z,1012.18
2022-09-02T00:23:52.321Z,1012.09
2022-09-02T00:24:27.472Z,1012.11
2022-09-02T00:25:02.959Z,1012.15
2022-09-02T00:25:38.184Z,1012.07
2022-09-02T00:26:13.630Z,1012.10
2022-09-02T00:26:48.873Z,1012.10
2022-09-02T00:27:24.166Z,1012.11
2022-09-02T00:27:59.374Z,1012.10
2022-09-02T00:28:34.578Z,1012.10
2022-09-02T00:29:10.100Z,1012.07
2022-09-02T00:29:45.383Z,1012.08
2022-09-02T00:30:20.409Z,1012.10
2022-09-02T00:30:55.428Z,1012.10
2022-09-02T00:31:30.808Z,1012.07
2022-09-02T00:32:05.991Z,1012.09
2022-09-02T00:32:41.549Z,1012.09
2022-09-02T00:33:16.653Z,1012.06
2022-09-02T00:33:51.873Z,1012.07
2022-09-02T00:34:27.062Z,1012.09
2022-09-02T00:35:02.200Z,1012.08
2022-09-02T00:35:37.215Z,1012.08
2022-09-02T00:36:15.641Z,1012.03
2022-09-02T00:36:51.050Z,1012.07
2022-09-02T00:37:26.265Z,1012.05
2022-09-02T00:38:01.667Z,1012.01
2022-09-02T00:38:36.773Z,1012.03
2022-09-02T00:39:12.072Z,1012.04
2022-09-02T00:39:47.315Z,1012.04
2022-09-02T00:40:22.635Z,1011.97
2022-09-02T00:40:57.950Z,1012.00
2022-09-02T00:41:33.242Z,1012.00
2022-09-02T00:42:08.649Z,1011.98
2022-09-02T00:42:43.657Z,1011.99
2022-09-02T00:43:19.024Z,1012.02
2022-09-02T00:43:54.440Z,1011.96
2022-09-02T00:44:29.964Z,1011.96
2022-09-02T00:45:05.353Z,1011.97
2022-09-02T00:45:40.535Z,1011.96
2022-09-02T00:46:15.753Z,1011.93
2022-09-02T00:46:50.822Z,1011.93
2022-09-02T00:47:26.210Z,1011.93
2022-09-02T00:48:01.438Z,1011.94
2022-09-02T00:48:36.590Z,1011.93
2022-09-02T00:49:11.916Z,1011.92
2022-09-02T00:49:47.047Z,1011.96
2022-09-02T00:50:22.595Z,1011.88
2022-09-02T00:50:58.237Z,1011.87
2022-09-02T00:51:33.652Z,1011.88
2022-09-02T00:52:08.676Z,1011.88
2022-09-02T00:52:44.023Z,1011.89
2022-09-02T00:53:19.281Z,1011.87
2022-09-02T00:53:54.553Z,1011.89
2022-09-02T00:54:29.667Z,1011.86
2022-09-02T00:55:05.101Z,1011.86
2022-09-02T00:55:40.190Z,1011.84
2022-09-02T00:56:15.514Z,1011.89
2022-09-02T00:56:50.725Z,1011.83
2022-09-02T00:57:25.960Z,1011.90
2022-09-02T00:58:01.264Z,1011.89
2022-09-02T00:58:36.486Z,1011.89
2022-09-02T00:59:11.887Z,1011.92
2022-09-02T00:59:47.433Z,1011.88
2022-09-02T01:00:22.529Z,1011.87
2022-09-02T01:00:57.794Z,1011.90
2022-09-02T01:01:33.045Z,1011.89
2022-09-02T01:02:08.337Z,1011.90
2022-09-02T01:02:43.542Z,1011.89
2022-09-02T01:03:18.716Z,1011.89
2022-09-02T01:03:53.782Z,1011.90
2022-09-02T01:04:28.889Z,1011.93
2022-09-02T01:05:04.125Z,1011.88
2022-09-02T01:05:43.627Z,1011.91
2022-09-02T01:06:14.536Z,1011.89
2022-09-02T01:06:49.986Z,1011.93
2022-09-02T01:07:25.187Z,1011.94
2022-09-02T01:08:00.405Z,1011.95
2022-09-02T01:08:35.599Z,1011.93
2022-09-02T01:09:10.720Z,1011.93
2022-09-02T01:09:45.906Z,1011.91
2022-09-02T01:10:21.328Z,1011.91
2022-09-02T01:10:57.040Z,1011.92
2022-09-02T01:11:32.375Z,1011.92
2022-09-02T01:12:07.629Z,1011.93
2022-09-02T01:12:43.159Z,1011.91
2022-09-02T01:13:18.414Z,1011.95
2022-09-02T01:13:53.482Z,1011.92
2022-09-02T01:14:28.799Z,1011.93
2022-09-02T01:15:04.070Z,1011.93
2022-09-02T01:15:39.379Z,1011.90
2022-09-02T01:16:14.948Z,1011.92
2022-09-02T01:16:50.445Z,1011.88
2022-09-02T01:17:25.722Z,1011.92
2022-09-02T01:18:01.065Z,1011.87
2022-09-02T01:18:36.423Z,1011.91
2022-09-02T01:19:11.611Z,1011.88
2022-09-02T01:19:46.801Z,1011.88
2022-09-02T01:20:25.603Z,1011.88
2022-09-02T01:20:57.230Z,1011.85
2022-09-02T01:21:32.415Z,1011.88
2022-09-02T01:22:07.942Z,1011.87
2022-09-02T01:22:43.309Z,1011.85
2022-09-02T01:23:18.576Z,1011.87
2022-09-02T01:23:54.066Z,1011.85
2022-09-02T01:24:29.483Z,1011.88
2022-09-02T01:25:04.903Z,1011.87
2022-09-02T01:25:40.105Z,1011.85
2022-09-02T01:26:15.528Z,1011.89
2022-09-02T01:26:51.082Z,1011.86
2022-09-02T01:27:26.304Z,1011.85
2022-09-02T01:28:01.436Z,1011.81
2022-09-02T01:28:36.777Z,1011.83
2022-09-02T01:29:12.192Z,1011.83
2022-09-02T01:29:47.313Z,1011.85
2022-09-02T01:30:22.517Z,1011.87
2022-09-02T01:30:57.527Z,1011.86
2022-09-02T01:31:32.755Z,1011.87
2022-09-02T01:32:08.087Z,1011.84
2022-09-02T01:32:43.587Z,1011.85
2022-09-02T01:33:18.854Z,1011.86
2022-09-02T01:33:53.818Z,1011.86
2022-09-02T01:34:29.060Z,1011.86
2022-09-02T01:35:04.363Z,1011.86
2022-09-02T01:35:39.908Z,1011.84
2022-09-02T01:36:14.922Z,1011.83
2022-09-02T01:36:50.292Z,1011.85
2022-09-02T01:37:25.416Z,1011.81
2022-09-02T01:38:00.619Z,1011.84
2022-09-02T01:38:35.861Z,1011.82
2022-09-02T01:39:11.195Z,1011.80
2022-09-02T01:39:46.638Z,1011.78
2022-09-02T01:40:21.885Z,1011.82
2022-09-02T01:40:57.305Z,1011.80
2022-09-02T01:41:32.622Z,1011.81
2022-09-02T01:42:07.768Z,1011.80
2022-09-02T01:42:43.191Z,1011.75
2022-09-02T01:43:18.447Z,1011.76
2022-09-02T01:43:53.646Z,1011.76
2022-09-02T01:44:28.664Z,1011.76
2022-09-02T01:45:04.009Z,1011.77
2022-09-02T01:45:39.637Z,1011.72
2022-09-02T01:46:15.078Z,1011.75
2022-09-02T01:46:50.733Z,1011.73
2022-09-02T01:47:26.093Z,1011.68
2022-09-02T01:48:01.222Z,1011.70
2022-09-02T01:48:36.431Z,1011.71
2022-09-02T01:49:11.461Z,1011.74
2022-09-02T01:49:46.896Z,1011.69
2022-09-02T01:50:22.086Z,1011.73
2022-09-02T01:50:57.104Z,1011.70
2022-09-02T01:51:32.319Z,1011.69
2022-09-02T01:52:07.355Z,1011.69
2022-09-02T01:52:42.653Z,1011.67
2022-09-02T01:53:17.941Z,1011.66
2022-09-02T01:53:53.040Z,1011.68
2022-09-02T01:54:28.180Z,1011.67
2022-09-02T01:55:03.873Z,1011.61
2022-09-02T01:55:39.192Z,1011.65
2022-09-02T01:56:14.511Z,1011.60
2022-09-02T01:56:49.914Z,1011.64
2022-09-02T01:57:25.332Z,1011.60
2022-09-02T01:58:00.723Z,1011.60
2022-09-02T01:58:36.246Z,1011.62
2022-09-02T01:59:11.751Z,1011.59
2022-09-02T01:59:47.372Z,1011.58
2022-09-02T02:00:22.497Z,1011.59
2022-09-02T02:00:57.583Z,1011.59
2022-09-02T02:01:32.717Z,1011.57
2022-09-02T02:02:08.332Z,1011.57
2022-09-02T02:02:43.458Z,1011.56
2022-09-02T02:03:18.405Z,1011.55
2022-09-02T02:03:53.722Z,1011.54
2022-09-02T02:04:29.055Z,1011.53
2022-09-02T02:05:04.201Z,1011.57
2022-09-02T02:05:39.311Z,1011.55
2022-09-02T02:06:14.336Z,1011.57
2022-09-02T02:06:52.497Z,1011.58
2022-09-02T02:07:24.793Z,1011.59
2022-09-02T02:07:59.985Z,1011.54
2022-09-02T02:08:35.434Z,1011.61
2022-09-02T02:09:10.863Z,1011.58
2022-09-02T02:09:45.985Z,1011.59
2022-09-02T02:10:21.279Z,1011.54
2022-09-02T02:10:56.597Z,1011.60
2022-09-02T02:11:31.995Z,1011.57
2022-09-02T02:12:06.999Z,1011.60
2022-09-02T02:12:42.170Z,1011.55
2022-09-02T02:13:17.469Z,1011.58
2022-09-02T02:13:53.183Z,1011.56
2022-09-02T02:14:28.815Z,1011.57
2022-09-02T02:15:04.033Z,1011.52
2022-09-02T02:15:39.001Z,1011.54
2022-09-02T02:16:14.003Z,1011.55
2022-09-02T02:16:49.186Z,1011.56
2022-09-02T02:17:24.703Z,1011.56
2022-09-02T02:17:59.927Z,1011.52
2022-09-02T02:18:35.127Z,1011.55
2022-09-02T02:19:10.448Z,1011.52
2022-09-02T02:19:45.582Z,1011.54
2022-09-02T02:20:21.005Z,1011.53
2022-09-02T02:20:56.523Z,1011.49
2022-09-02T02:21:31.844Z,1011.55
2022-09-02T02:22:07.047Z,1011.51
2022-09-02T02:22:42.148Z,1011.53
2022-09-02T02:23:17.481Z,1011.49
2022-09-02T02:23:52.764Z,1011.50
2022-09-02T02:24:27.999Z,1011.50
2022-09-02T02:25:03.118Z,1011.48
2022-09-02T02:25:38.142Z,1011.49
2022-09-02T02:26:13.585Z,1011.51
2022-09-02T02:26:48.995Z,1011.48
2022-09-02T02:27:24.116Z,1011.47
2022-09-02T02:27:59.322Z,1011.47
2022-09-02T02:28:34.751Z,1011.45
2022-09-02T02:29:10.073Z,1011.46
2022-09-02T02:29:45.328Z,1011.47
2022-09-02T02:30:20.838Z,1011.47
2022-09-02T02:30:56.647Z,1011.44
2022-09-02T02:31:31.889Z,1011.46
2022-09-02T02:32:07.084Z,1011.46
2022-09-02T02:32:42.300Z,1011.47
2022-09-02T02:33:17.694Z,1011.47
2022-09-02T02:33:52.854Z,1011.42
2022-09-02T02:34:27.971Z,1011.45
2022-09-02T02:35:03.274Z,1011.42
2022-09-02T02:35:38.486Z,1011.42
2022-09-02T02:36:13.630Z,1011.35
2022-09-02T02:36:48.863Z,1011.48
2022-09-02T02:37:25.659Z,1011.39
2022-09-02T02:37:59.645Z,1011.39
2022-09-02T02:38:34.841Z,1011.37
2022-09-02T02:39:09.981Z,1011.39
2022-09-02T02:39:45.193Z,1011.42
2022-09-02T02:40:20.454Z,1011.39
2022-09-02T02:40:55.430Z,1011.44
2022-09-02T02:41:30.765Z,1011.37
2022-09-02T02:42:06.200Z,1011.37
2022-09-02T02:42:41.525Z,1011.38
2022-09-02T02:43:17.023Z,1011.37
2022-09-02T02:43:52.339Z,1011.39
2022-09-02T02:44:27.378Z,1011.39
2022-09-02T02:45:02.381Z,1011.35
2022-09-02T02:45:37.547Z,1011.35
2022-09-02T02:46:12.883Z,1011.37
2022-09-02T02:46:48.217Z,1011.36
2022-09-02T02:47:23.301Z,1011.35
2022-09-02T02:47:58.414Z,1011.35
2022-09-02T02:48:33.867Z,1011.38
2022-09-02T02:49:09.102Z,1011.32
2022-09-02T02:49:44.314Z,1011.38
2022-09-02T02:50:19.420Z,1011.33
2022-09-02T02:50:54.937Z,1011.38
2022-09-02T02:51:30.087Z,1011.37
2022-09-02T02:52:05.288Z,1011.42
2022-09-02T02:52:40.552Z,1011.37
2022-09-02T02:53:15.973Z,1011.35
2022-09-02T02:53:53.022Z,1011.35
2022-09-02T02:54:34.866Z,1011.33
2022-09-02T02:55:01.534Z,1011.38
2022-09-02T02:55:36.862Z,1011.37
2022-09-02T02:56:12.170Z,1011.35
2022-09-02T02:56:47.290Z,1011.46
2022-09-02T02:57:22.886Z,1011.37
2022-09-02T02:57:58.147Z,1011.38
2022-09-02T02:58:33.250Z,1011.34
2022-09-02T02:59:08.551Z,1011.40
2022-09-02T02:59:43.762Z,1011.37
2022-09-02T03:00:19.070Z,1011.37
2022-09-02T03:00:54.193Z,1011.38
2022-09-02T03:01:29.006Z,1011.38
2022-09-02T03:02:04.243Z,1011.40
2022-09-02T03:02:39.488Z,1011.39
2022-09-02T03:03:15.004Z,1011.34
2022-09-02T03:03:50.320Z,1011.40
2022-09-02T03:04:25.725Z,1011.40
2022-09-02T03:05:00.845Z,1011.40
2022-09-02T03:05:36.134Z,1011.38
2022-09-02T03:06:11.766Z,1011.38
2022-09-02T03:06:46.973Z,1011.40
2022-09-02T03:07:22.171Z,1011.38
2022-09-02T03:07:57.375Z,1011.42
2022-09-02T03:08:32.509Z,1011.38
2022-09-02T03:09:07.649Z,1011.39
2022-09-02T03:09:42.793Z,1011.34
2022-09-02T03:10:18.232Z,1011.37
2022-09-02T03:10:53.366Z,1011.36
2022-09-02T03:11:28.422Z,1011.37
2022-09-02T03:12:03.814Z,1011.33
2022-09-02T03:12:38.939Z,1011.35
2022-09-02T03:13:14.312Z,1011.37
2022-09-02T03:13:49.802Z,1011.32
2022-09-02T03:14:25.282Z,1011.34
2022-09-02T03:15:00.622Z,1011.34
2022-09-02T03:15:35.929Z,1011.33
2022-09-02T03:16:11.202Z,1011.30
2022-09-02T03:16:46.271Z,1011.33
2022-09-02T03:17:21.590Z,1011.32
2022-09-02T03:17:56.728Z,1011.32
2022-09-02T03:18:31.821Z,1011.33
2022-09-02T03:19:07.361Z,1011.36
2022-09-02T03:19:42.371Z,1011.34
2022-09-02T03:20:17.795Z,1011.35
2022-09-02T03:20:52.893Z,1011.32
2022-09-02T03:21:28.004Z,1011.33
2022-09-02T03:22:03.243Z,1011.30
2022-09-02T03:22:38.447Z,1011.37
2022-09-02T03:23:13.917Z,1011.29
2022-09-02T03:23:49.061Z,1011.34
2022-09-02T03:24:24.188Z,1011.32
2022-09-02T03:24:59.401Z,1011.36
2022-09-02T03:25:36.068Z,1011.37
2022-09-02T03:26:10.142Z,1011.36
2022-09-02T03:26:45.253Z,1011.36
2022-09-02T03:27:20.280Z,1011.33
2022-09-02T03:27:55.524Z,1011.36
2022-09-02T03:28:30.735Z,1011.37
2022-09-02T03:29:05.844Z,1011.37
2022-09-02T03:29:41.178Z,1011.35
2022-09-02T03:30:16.701Z,1011.40
2022-09-02T03:30:52.386Z,1011.33
2022-09-02T03:31:27.796Z,1011.33
2022-09-02T03:32:02.993Z,1011.33
2022-09-02T03:32:38.095Z,1011.31
2022-09-02T03:33:13.503Z,1011.28
2022-09-02T03:33:48.913Z,1011.31
2022-09-02T03:34:24.488Z,1011.25
2022-09-02T03:34:59.710Z,1011.31
2022-09-02T03:35:35.210Z,1011.31
2022-09-02T03:36:10.614Z,1011.31
2022-09-02T03:36:45.951Z,1011.31
2022-09-02T03:37:21.139Z,1011.30
2022-09-02T03:37:56.461Z,1011.31
2022-09-02T03:38:31.672Z,1011.28
2022-09-02T03:39:09.943Z,1011.27
2022-09-02T03:39:42.138Z,1011.27
2022-09-02T03:40:17.546Z,1011.28
2022-09-02T03:40:53.146Z,1011.25
2022-09-02T03:41:28.414Z,1011.30
2022-09-02T03:42:03.539Z,1011.25
2022-09-02T03:42:38.854Z,1011.27
2022-09-02T03:43:14.351Z,1011.26
2022-09-02T03:43:49.602Z,1011.26
2022-09-02T03:44:24.723Z,1011.26
2022-09-02T03:45:00.125Z,1011.22
2022-09-02T03:45:35.393Z,1011.22
2022-09-02T03:46:10.568Z,1011.24
2022-09-02T03:46:45.946Z,1011.21
2022-09-02T03:47:21.271Z,1011.21
2022-09-02T03:47:56.682Z,1011.21
2022-09-02T03:48:31.919Z,1011.15
2022-09-02T03:49:07.162Z,1011.23
2022-09-02T03:49:43.757Z,1011.18
2022-09-02T03:50:18.240Z,1011.21
2022-09-02T03:50:53.648Z,1011.23
2022-09-02T03:51:28.565Z,1011.22
2022-09-02T03:52:03.994Z,1011.18
2022-09-02T03:52:39.311Z,1011.17
2022-09-02T03:53:19.348Z,1011.15
2022-09-02T03:53:49.830Z,1011.20
2022-09-02T03:54:25.143Z,1011.13
2022-09-02T03:55:00.354Z,1011.17
2022-09-02T03:55:35.795Z,1011.15
2022-09-02T03:56:11.185Z,1011.17
2022-09-02T03:56:46.365Z,1011.19
2022-09-02T03:57:21.475Z,1011.18
2022-09-02T03:57:56.680Z,1011.16
2022-09-02T03:58:32.012Z,1011.16
2022-09-02T03:59:07.323Z,1011.14
2022-09-02T03:59:42.542Z,1011.13
2022-09-02T04:00:17.875Z,1011.11
2022-09-02T04:00:53.506Z,1011.10
2022-09-02T04:01:34.398Z,1011.09
2022-09-02T04:02:04.309Z,1011.13
2022-09-02T04:02:39.377Z,1011.10
2022-09-02T04:03:14.423Z,1011.10
2022-09-02T04:03:49.468Z,1011.11
2022-09-02T04:04:25.082Z,1011.13
2022-09-02T04:05:00.497Z,1011.08
2022-09-02T04:05:35.837Z,1011.09
2022-09-02T04:06:11.163Z,1011.09
2022-09-02T04:06:46.460Z,1011.08
2022-09-02T04:07:21.667Z,1011.09
2022-09-02T04:07:56.870Z,1011.06
2022-09-02T04:08:32.189Z,1011.07
2022-09-02T04:09:07.619Z,1011.07
2022-09-02T04:09:46.707Z,1011.09
2022-09-02T04:10:19.471Z,1011.09
2022-09-02T04:10:54.824Z,1011.11
2022-09-02T04:11:30.042Z,1011.08
2022-09-02T04:12:05.558Z,1011.08
2022-09-02T04:12:40.675Z,1011.08
2022-09-02T04:13:15.994Z,1011.09
2022-09-02T04:13:51.304Z,1011.08
2022-09-02T04:14:33.526Z,1011.11
2022-09-02T04:15:09.391Z,1011.09
2022-09-02T04:15:44.962Z,1011.10
2022-09-02T04:16:20.293Z,1011.09
2022-09-02T04:16:55.862Z,1011.06
2022-09-02T04:17:31.125Z,1011.08
2022-09-02T04:18:06.574Z,1011.08
2022-09-02T04:18:41.903Z,1011.06
2022-09-02T04:19:17.410Z,1011.09
2022-09-02T04:19:52.739Z,1011.04
2022-09-02T04:20:28.049Z,1011.07
2022-09-02T04:21:03.774Z,1011.06
2022-09-02T04:21:39.035Z,1011.07
2022-09-02T04:22:14.246Z,1011.09
2022-09-02T04:22:49.564Z,1011.08
2022-09-02T04:23:24.568Z,1011.07
2022-09-02T04:23:59.823Z,1011.04
2022-09-02T04:24:35.057Z,1011.06
2022-09-02T04:25:10.291Z,1011.08
2022-09-02T04:25:45.499Z,1011.04
2022-09-02T04:26:20.726Z,1011.08
2022-09-02T04:26:58.493Z,1011.06
2022-09-02T04:27:31.443Z,1011.03
2022-09-02T04:28:07.200Z,1010.99
2022-09-02T04:28:42.498Z,1011.05
2022-09-02T04:29:17.639Z,1010.99
2022-09-02T04:29:52.855Z,1011.03
2022-09-02T04:30:28.286Z,1011.03
2022-09-02T04:31:04.089Z,1011.03
2022-09-02T04:31:39.397Z,1011.07
2022-09-02T04:32:14.462Z,1011.04
2022-09-02T04:32:49.684Z,1011.06
2022-09-02T04:33:24.929Z,1011.03
2022-09-02T04:34:00.319Z,1011.00
2022-09-02T04:34:35.730Z,1011.00
2022-09-02T04:35:10.856Z,1010.98
2022-09-02T04:35:46.192Z,1011.00
2022-09-02T04:36:21.522Z,1011.01
2022-09-02T04:36:57.144Z,1011.02
2022-09-02T04:37:32.594Z,1011.02
2022-09-02T04:38:07.611Z,1011.00
2022-09-02T04:38:43.018Z,1010.99
2022-09-02T04:39:18.239Z,1011.00
2022-09-02T04:39:53.608Z,1011.02
2022-09-02T04:40:28.569Z,1011.00
2022-09-02T04:41:03.859Z,1010.98
2022-09-02T04:41:39.196Z,1011.00
2022-09-02T04:42:14.519Z,1010.99
2022-09-02T04:42:49.577Z,1010.98
2022-09-02T04:43:24.796Z,1011.01
2022-09-02T04:44:00.128Z,1011.03
2022-09-02T04:44:35.572Z,1010.99
2022-09-02T04:45:10.910Z,1010.98
2022-09-02T04:45:46.237Z,1010.97
2022-09-02T04:46:29.739Z,1011.01
2022-09-02T04:46:56.511Z,1011.01
2022-09-02T04:47:31.834Z,1010.97
2022-09-02T04:48:06.983Z,1010.97
2022-09-02T04:48:42.135Z,1010.96
2022-09-02T04:49:17.645Z,1011.00
2022-09-02T04:49:53.074Z,1010.92
2022-09-02T04:50:28.377Z,1010.97
2022-09-02T04:51:03.482Z,1010.96
2022-09-02T04:51:38.900Z,1010.98
2022-09-02T04:52:14.131Z,1011.00
2022-09-02T04:52:49.660Z,1011.00
2022-09-02T04:53:25.102Z,1010.97
2022-09-02T04:54:00.531Z,1010.97
2022-09-02T04:54:35.646Z,1010.95
2022-09-02T04:55:10.868Z,1010.98
2022-09-02T04:55:46.191Z,1011.00
2022-09-02T04:56:21.108Z,1010.95
2022-09-02T04:56:56.349Z,1010.93
2022-09-02T04:57:31.645Z,1010.98
2022-09-02T04:58:07.028Z,1011.00
2022-09-02T04:58:42.393Z,1010.99
2022-09-02T04:59:17.835Z,1010.96
2022-09-02T04:59:53.152Z,1010.97
2022-09-02T05:00:28.198Z,1010.95
2022-09-02T05:01:03.622Z,1010.96
2022-09-02T05:01:39.183Z,1010.96
2022-09-02T05:02:14.732Z,1010.99
2022-09-02T05:02:49.761Z,1010.98
2022-09-02T05:03:25.112Z,1010.99
2022-09-02T05:04:00.503Z,1010.97
2022-09-02T05:04:35.586Z,1010.97
2022-09-02T05:05:10.812Z,1011.00
2022-09-02T05:05:46.015Z,1011.00
2022-09-02T05:06:20.937Z,1010.95
2022-09-02T05:06:56.162Z,1010.99
2022-09-02T05:07:31.574Z,1010.97
2022-09-02T05:08:06.690Z,1011.00
2022-09-02T05:08:41.897Z,1010.97
2022-09-02T05:09:17.262Z,1010.99
2022-09-02T05:09:52.474Z,1010.97
2022-09-02T05:10:27.992Z,1010.94
2022-09-02T05:11:03.208Z,1010.98
2022-09-02T05:11:38.320Z,1010.96
2022-09-02T05:12:13.646Z,1010.95
2022-09-02T05:12:48.960Z,1010.98
2022-09-02T05:13:24.597Z,1010.99
2022-09-02T05:13:59.930Z,1010.95
2022-09-02T05:14:35.348Z,1010.97
2022-09-02T05:15:10.997Z,1010.99
2022-09-02T05:15:46.139Z,1010.94
2022-09-02T05:16:21.575Z,1010.94
2022-09-02T05:16:56.548Z,1010.97
2022-09-02T05:17:31.894Z,1010.97
2022-09-02T05:18:07.420Z,1011.00
2022-09-02T05:18:42.766Z,1010.96
2022-09-02T05:19:18.295Z,1010.98
2022-09-02T05:19:53.853Z,1010.97
2022-09-02T05:20:28.956Z,1010.99
2022-09-02T05:21:04.200Z,1010.99
2022-09-02T05:21:39.623Z,1011.01
2022-09-02T05:22:14.844Z,1010.97
2022-09-02T05:22:49.861Z,1010.99
2022-09-02T05:23:25.278Z,1010.99
2022-09-02T05:24:00.805Z,1011.02
2022-09-02T05:24:36.027Z,1011.00
2022-09-02T05:25:11.068Z,1011.04
2022-09-02T05:25:46.594Z,1011.02
2022-09-02T05:26:22.044Z,1011.00
2022-09-02T05:26:57.158Z,1011.03
2022-09-02T05:27:32.372Z,1010.98
2022-09-02T05:28:07.665Z,1011.03
2022-09-02T05:28:42.815Z,1011.00
2022-09-02T05:29:18.045Z,1010.99
2022-09-02T05:29:53.164Z,1011.00
2022-09-02T05:30:28.691Z,1010.97
2022-09-02T05:31:03.728Z,1010.99
2022-09-02T05:31:39.191Z,1011.01
2022-09-02T05:32:14.617Z,1011.02
2022-09-02T05:32:49.953Z,1011.04
2022-09-02T05:33:25.285Z,1011.02
2022-09-02T05:34:00.390Z,1010.99
2022-09-02T05:34:35.530Z,1010.95
2022-09-02T05:35:10.657Z,1010.99
2022-09-02T05:35:45.957Z,1011.01
2022-09-02T05:36:21.103Z,1011.05
2022-09-02T05:36:56.412Z,1011.03
2022-09-02T05:37:31.964Z,1010.99
2022-09-02T05:38:07.322Z,1010.99
2022-09-02T05:38:42.856Z,1011.00
2022-09-02T05:39:18.085Z,1011.00
2022-09-02T05:39:53.628Z,1011.01
2022-09-02T05:40:29.004Z,1011.01
2022-09-02T05:41:04.211Z,1011.02
2022-09-02T05:41:39.271Z,1011.03
2022-09-02T05:42:14.575Z,1011.03
2022-09-02T05:42:49.886Z,1011.02
2022-09-02T05:43:25.115Z,1011.07
2022-09-02T05:44:01.403Z,1011.02
2022-09-02T05:44:35.547Z,1011.04
2022-09-02T05:45:10.935Z,1011.00
2022-09-02T05:45:46.133Z,1011.02
2022-09-02T05:46:21.396Z,1011.04
2022-09-02T05:46:56.687Z,1011.02
2022-09-02T05:47:31.837Z,1011.04
2022-09-02T05:48:06.845Z,1011.06
2022-09-02T05:48:42.410Z,1011.00
2022-09-02T05:49:18.012Z,1011.03
2022-09-02T05:49:53.634Z,1011.05
2022-09-02T05:50:31.787Z,1011.03
2022-09-02T05:51:04.164Z,1011.04
2022-09-02T05:51:39.402Z,1011.03
2022-09-02T05:52:14.818Z,1011.04
2022-09-02T05:52:50.252Z,1010.99
2022-09-02T05:53:25.739Z,1010.99
2022-09-02T05:54:00.859Z,1011.00
2022-09-02T05:54:36.281Z,1011.01
2022-09-02T05:55:11.405Z,1010.99
2022-09-02T05:55:46.628Z,1011.02
2022-09-02T05:56:22.247Z,1010.99
2022-09-02T05:56:57.659Z,1010.99
2022-09-02T05:57:32.947Z,1010.99
2022-09-02T05:58:08.235Z,1010.96
2022-09-02T05:58:43.553Z,1010.98
2022-09-02T05:59:18.955Z,1011.01
2022-09-02T05:59:54.174Z,1010.95
2022-09-02T06:00:29.395Z,1010.96
2022-09-02T06:01:04.925Z,1010.97
2022-09-02T06:01:40.295Z,1010.96
2022-09-02T06:02:15.653Z,1010.96
2022-09-02T06:02:50.795Z,1010.95
2022-09-02T06:03:26.056Z,1010.99
2022-09-02T06:04:01.270Z,1010.96
2022-09-02T06:04:36.592Z,1010.94
2022-09-02T06:05:11.933Z,1010.97
2022-09-02T06:05:47.243Z,1010.94
2022-09-02T06:06:22.551Z,1010.92
2022-09-02T06:06:57.779Z,1010.99
2022-09-02T06:07:33.116Z,1010.96
2022-09-02T06:08:08.623Z,1010.92
2022-09-02T06:08:43.840Z,1010.89
2022-09-02T06:09:19.132Z,1010.90
2022-09-02T06:09:54.370Z,1010.86
2022-09-02T06:10:29.715Z,1010.93
2022-09-02T06:11:05.024Z,1010.90
2022-09-02T06:11:40.712Z,1010.95
2022-09-02T06:12:16.410Z,1010.95
2022-09-02T06:12:51.633Z,1010.89
2022-09-02T06:13:27.085Z,1010.88
2022-09-02T06:14:02.734Z,1010.89
2022-09-02T06:14:38.571Z,1010.88
2022-09-02T06:15:14.770Z,1010.91
2022-09-02T06:15:50.027Z,1010.91
2022-09-02T06:16:25.321Z,1010.91
2022-09-02T06:17:00.701Z,1010.88
2022-09-02T06:17:36.023Z,1010.89
2022-09-02T06:18:11.853Z,1010.89
2022-09-02T06:18:47.403Z,1010.87
2022-09-02T06:19:22.873Z,1010.87
2022-09-02T06:19:58.087Z,1010.86
2022-09-02T06:20:33.429Z,1010.87
2022-09-02T06:21:08.751Z,1010.90
2022-09-02T06:21:44.283Z,1010.82
2022-09-02T06:22:19.497Z,1010.83
2022-09-02T06:22:54.511Z,1010.87
2022-09-02T06:23:29.639Z,1010.87
2022-09-02T06:24:04.774Z,1010.89
2022-09-02T06:24:39.973Z,1010.86
2022-09-02T06:25:15.112Z,1010.88
2022-09-02T06:25:50.452Z,1010.93
2022-09-02T06:26:25.917Z,1010.93
2022-09-02T06:27:01.142Z,1010.93
2022-09-02T06:27:36.376Z,1010.90
2022-09-02T06:28:11.682Z,1010.94
2022-09-02T06:28:47.241Z,1010.90
2022-09-02T06:29:22.548Z,1010.96
2022-09-02T06:29:57.952Z,1010.89
2022-09-02T06:30:33.216Z,1010.92
2022-09-02T06:31:08.625Z,1010.91
2022-09-02T06:31:43.982Z,1010.90
2022-09-02T06:32:19.396Z,1010.93
2022-09-02T06:32:54.622Z,1010.93
2022-09-02T06:33:29.836Z,1010.91
2022-09-02T06:34:05.354Z,1010.90
2022-09-02T06:34:40.773Z,1010.90
2022-09-02T06:35:16.270Z,1010.92
2022-09-02T06:35:51.793Z,1010.88
2022-09-02T06:36:28.225Z,1010.91
2022-09-02T06:37:02.008Z,1010.95
2022-09-02T06:37:37.295Z,1010.92
2022-09-02T06:38:12.521Z,1010.92
2022-09-02T06:38:47.535Z,1010.98
2022-09-02T06:39:22.424Z,1010.94
2022-09-02T06:39:57.927Z,1010.96
2022-09-02T06:40:33.232Z,1010.96
2022-09-02T06:41:08.477Z,1010.99
2022-09-02T06:41:43.613Z,1010.97
2022-09-02T06:42:18.916Z,1010.98
2022-09-02T06:42:54.142Z,1010.95
2022-09-02T06:43:29.133Z,1010.95
2022-09-02T06:44:07.046Z,1010.96
2022-09-02T06:44:40.076Z,1010.95
2022-09-02T06:45:16.361Z,1010.95
2022-09-02T06:45:52.107Z,1010.97
2022-09-02T06:46:27.287Z,1010.94
2022-09-02T06:47:02.566Z,1010.95
2022-09-02T06:47:38.164Z,1010.94
2022-09-02T06:48:13.699Z,1010.93
2022-09-02T06:48:49.003Z,1010.93
2022-09-02T06:49:24.565Z,1010.92
2022-09-02T06:50:00.218Z,1010.92
2022-09-02T06:50:35.413Z,1010.95
2022-09-02T06:51:10.731Z,1010.91
2022-09-02T06:51:45.737Z,1010.90
2022-09-02T06:52:20.849Z,1010.90
2022-09-02T06:52:56.154Z,1010.96
2022-09-02T06:53:31.679Z,1010.90
2022-09-02T06:54:07.082Z,1010.88
2022-09-02T06:54:42.627Z,1010.95
2022-09-02T06:55:18.073Z,1010.91
2022-09-02T06:55:53.564Z,1010.89
2022-09-02T06:56:28.668Z,1010.86
2022-09-02T06:57:04.179Z,1010.91
2022-09-02T06:57:39.310Z,1010.93
2022-09-02T06:58:14.629Z,1010.94
2022-09-02T06:58:49.838Z,1010.89
2022-09-02T06:59:24.948Z,1010.94
2022-09-02T07:00:02.405Z,1010.92
2022-09-02T07:00:36.243Z,1010.92
2022-09-02T07:01:11.744Z,1010.92
2022-09-02T07:01:46.939Z,1010.91
2022-09-02T07:02:21.957Z,1010.92
2022-09-02T07:02:57.271Z,1010.95
2022-09-02T07:03:32.703Z,1010.93
2022-09-02T07:04:07.901Z,1010.93
2022-09-02T07:04:43.153Z,1010.92
2022-09-02T07:05:18.390Z,1010.92
2022-09-02T07:05:53.690Z,1010.92
2022-09-02T07:06:28.913Z,1010.97
2022-09-02T07:07:04.102Z,1010.92